Time;durP1;ratioP1;P1;durP2;ratioP2;P2;SDS_P1;SDS_P2;PMS_P1;PMS_P2;Temp;Humidity;BMP_temperature;BMP_pressure;BME280_temperature;BME280_humidity;BME280_pressure;Samples;Min_cycle;Max_cycle;Signal;HPM_P1;HPM_P2
2021/01/06 00:02:00;;;;;;;35.07;24.20;;;2.50;99.90;;;;;;5092236;28;20189;-73
2021/01/06 00:04:26;;;;;;;40.20;25.80;;;2.50;99.90;;;;;;5091150;28;20189;-73
2021/01/06 00:06:51;;;;;;;40.10;24.37;;;2.50;99.90;;;;;;5091798;28;20179;-72
2021/01/06 00:09:17;;;;;;;37.07;24.87;;;2.40;99.90;;;;;;5091162;28;20187;-73
2021/01/06 00:11:43;;;;;;;36.27;23.53;;;2.50;99.90;;;;;;5093448;28;20197;-74
2021/01/06 00:14:12;;;;;;;33.97;22.63;;;2.40;99.90;;;;;;5081271;28;20192;-74
2021/01/06 00:16:38;;;;;;;35.63;23.60;;;2.50;99.90;;;;;;5087124;28;20235;-72
2021/01/06 00:19:05;;;;;;;37.83;23.57;;;2.50;99.90;;;;;;5087003;28;20197;-72
2021/01/06 00:21:30;;;;;;;37.10;23.60;;;2.40;99.90;;;;;;5091326;28;20190;-73
2021/01/06 00:23:56;;;;;;;35.37;24.40;;;2.40;99.90;;;;;;5094760;28;20194;-73
2021/01/06 00:26:22;;;;;;;36.97;24.70;;;2.40;99.90;;;;;;5087417;28;20207;-73
2021/01/06 00:28:48;;;;;;;34.43;22.77;;;2.40;99.90;;;;;;5093417;28;20241;-73
2021/01/06 00:31:13;;;;;;;32.77;22.90;;;2.40;99.90;;;;;;5090018;28;20184;-73
2021/01/06 00:33:39;;;;;;;31.73;22.53;;;2.50;99.90;;;;;;5091494;28;20253;-73
2021/01/06 00:36:09;;;;;;;34.23;22.63;;;2.40;99.90;;;;;;5089846;28;20206;-72
2021/01/06 00:38:37;;;;;;;32.63;22.07;;;2.40;99.90;;;;;;5089925;28;20208;-73
2021/01/06 00:41:03;;;;;;;32.83;23.47;;;2.40;99.90;;;;;;5086186;28;20279;-74
2021/01/06 00:43:28;;;;;;;33.07;22.23;;;2.40;99.90;;;;;;5088190;28;20311;-73
2021/01/06 00:45:54;;;;;;;33.63;22.47;;;2.40;99.90;;;;;;5084557;28;20244;-74
2021/01/06 00:48:20;;;;;;;29.87;21.80;;;2.40;99.90;;;;;;5079592;28;20204;-73
2021/01/06 00:50:47;;;;;;;33.63;22.60;;;2.40;99.90;;;;;;5081126;28;20182;-72
2021/01/06 00:53:24;;;;;;;32.93;23.47;;;2.40;99.90;;;;;;5085219;28;20846;-74
2021/01/06 00:55:54;;;;;;;34.10;23.30;;;2.40;99.90;;;;;;5087654;28;20268;-73
2021/01/06 00:58:21;;;;;;;32.03;22.77;;;2.40;99.90;;;;;;5092327;28;20200;-72
2021/01/06 01:00:46;;;;;;;30.53;21.70;;;2.40;99.90;;;;;;5088467;28;20275;-73
2021/01/06 01:03:13;;;;;;;27.80;20.63;;;2.50;99.90;;;;;;5084033;28;20611;-73
2021/01/06 01:05:39;;;;;;;25.50;20.90;;;2.40;99.90;;;;;;5080668;28;20216;-73
2021/01/06 01:08:07;;;;;;;27.90;21.37;;;2.40;99.90;;;;;;5088465;28;20744;-73
2021/01/06 01:10:43;;;;;;;29.53;22.67;;;2.40;99.90;;;;;;5084718;28;20193;-74
2021/01/06 01:13:12;;;;;;;29.27;22.63;;;2.40;99.90;;;;;;5090137;28;20203;-74
2021/01/06 01:15:40;;;;;;;28.63;21.53;;;2.40;99.90;;;;;;5086853;28;20214;-73
2021/01/06 01:18:09;;;;;;;30.30;22.57;;;2.30;99.90;;;;;;5087694;28;20189;-73
2021/01/06 01:20:35;;;;;;;27.17;21.17;;;2.30;99.90;;;;;;5092128;28;20201;-73
2021/01/06 01:23:01;;;;;;;25.73;20.63;;;2.30;99.90;;;;;;5087350;28;20199;-74
2021/01/06 01:25:28;;;;;;;26.43;20.77;;;2.30;99.90;;;;;;5090051;28;20219;-74
2021/01/06 01:27:54;;;;;;;21.80;18.37;;;2.30;99.90;;;;;;5084099;28;20202;-74
2021/01/06 01:30:26;;;;;;;24.93;18.80;;;2.30;99.90;;;;;;5087776;28;20188;-74
2021/01/06 01:32:53;;;;;;;27.77;20.40;;;2.30;99.90;;;;;;5091367;28;20173;-74
2021/01/06 01:35:27;;;;;;;26.07;20.17;;;2.30;99.90;;;;;;5093052;28;20225;-73
2021/01/06 01:37:54;;;;;;;23.83;19.03;;;2.30;99.90;;;;;;5091411;28;20180;-73
2021/01/06 01:40:30;;;;;;;22.63;18.73;;;2.30;99.90;;;;;;5082564;28;20238;-74
2021/01/06 01:43:04;;;;;;;24.87;18.70;;;2.20;99.90;;;;;;5085126;28;20194;-73
2021/01/06 01:45:44;;;;;;;22.77;18.77;;;2.20;99.90;;;;;;5086177;28;20210;-73
2021/01/06 01:48:41;;;;;;;23.90;18.97;;;2.20;99.90;;;;;;5085307;28;20271;-73
2021/01/06 01:51:29;;;;;;;20.40;18.00;;;2.20;99.90;;;;;;5088052;28;20229;-73
2021/01/06 01:54:07;;;;;;;24.73;19.03;;;2.20;99.90;;;;;;5095531;28;20675;-73
2021/01/06 01:56:52;;;;;;;24.00;19.20;;;2.20;99.90;;;;;;5093589;28;20196;-73
2021/01/06 01:59:39;;;;;;;24.50;18.97;;;2.20;99.90;;;;;;5090482;28;20190;-73
2021/01/06 02:02:27;;;;;;;22.00;17.90;;;2.10;99.90;;;;;;5087751;28;20269;-73
2021/01/06 02:04:56;;;;;;;24.50;19.03;;;2.10;99.90;;;;;;5086708;28;20198;-73
2021/01/06 02:07:29;;;;;;;25.00;19.77;;;2.10;99.90;;;;;;5094739;28;20203;-73
2021/01/06 02:10:16;;;;;;;23.80;19.07;;;2.10;99.90;;;;;;5088851;28;20186;-73
2021/01/06 02:12:50;;;;;;;23.30;19.30;;;2.10;99.90;;;;;;5088104;28;20195;-73
2021/01/06 02:15:49;;;;;;;24.40;19.40;;;2.00;99.90;;;;;;5090190;28;20198;-73
2021/01/06 02:18:16;;;;;;;25.87;19.70;;;2.00;99.90;;;;;;5088314;28;20189;-73
2021/01/06 02:21:18;;;;;;;24.10;19.30;;;2.00;99.90;;;;;;5092173;28;20189;-73
2021/01/06 02:23:49;;;;;;;23.70;18.70;;;1.90;99.90;;;;;;5092682;28;20281;-74
2021/01/06 02:26:15;;;;;;;23.37;17.70;;;2.00;99.90;;;;;;5085496;28;20207;-73
2021/01/06 02:28:41;;;;;;;23.30;19.60;;;1.90;99.90;;;;;;5084521;28;20197;-73
2021/01/06 02:31:07;;;;;;;24.37;19.80;;;1.90;99.90;;;;;;5097047;28;20233;-73
2021/01/06 02:33:35;;;;;;;28.77;19.70;;;2.00;99.90;;;;;;5091553;28;20246;-73
2021/01/06 02:36:01;;;;;;;27.70;20.97;;;2.00;99.90;;;;;;5093808;28;20209;-73
2021/01/06 02:38:28;;;;;;;25.20;19.33;;;2.00;99.90;;;;;;5091842;28;20192;-73
2021/01/06 02:40:55;;;;;;;24.33;19.07;;;2.00;99.90;;;;;;5093303;28;20573;-74
2021/01/06 02:43:23;;;;;;;26.43;19.63;;;1.90;99.90;;;;;;5094420;28;20188;-73
2021/01/06 02:45:49;;;;;;;26.57;19.33;;;1.90;99.90;;;;;;5097687;28;20264;-73
2021/01/06 02:48:15;;;;;;;25.33;19.73;;;1.90;99.90;;;;;;5091565;28;20202;-74
2021/01/06 02:50:45;;;;;;;28.63;21.87;;;1.90;99.90;;;;;;5088683;28;20301;-75
2021/01/06 02:53:16;;;;;;;28.60;21.10;;;1.90;99.90;;;;;;5085140;28;20180;-73
2021/01/06 02:55:47;;;;;;;27.00;20.37;;;1.90;99.90;;;;;;5101136;28;20214;-73
2021/01/06 02:58:16;;;;;;;25.23;19.03;;;1.90;99.90;;;;;;5094009;28;20184;-73
2021/01/06 03:00:41;;;;;;;28.50;20.30;;;1.90;99.90;;;;;;5098014;28;20193;-73
2021/01/06 03:03:12;;;;;;;25.30;19.87;;;1.90;99.90;;;;;;5098591;28;20794;-73
2021/01/06 03:05:45;;;;;;;25.00;19.83;;;1.90;99.90;;;;;;5089435;28;20284;-73
2021/01/06 03:08:14;;;;;;;24.70;18.80;;;2.00;99.90;;;;;;5087072;28;20210;-72
2021/01/06 03:10:40;;;;;;;23.90;18.83;;;1.90;99.90;;;;;;5093897;28;20179;-72
2021/01/06 03:13:06;;;;;;;23.93;18.87;;;1.90;99.90;;;;;;5086262;28;20173;-73
2021/01/06 03:15:32;;;;;;;23.87;19.03;;;1.90;99.90;;;;;;5092123;28;20577;-72
2021/01/06 03:17:59;;;;;;;25.57;19.87;;;1.90;99.90;;;;;;5088855;28;20503;-73
2021/01/06 03:20:44;;;;;;;22.47;18.70;;;1.90;99.90;;;;;;5090722;28;20199;-74
2021/01/06 03:23:31;;;;;;;22.40;19.27;;;1.90;99.90;;;;;;5090902;28;20437;-74
2021/01/06 03:26:00;;;;;;;24.73;18.43;;;1.90;99.90;;;;;;5083685;28;20214;-74
2021/01/06 03:28:28;;;;;;;25.43;19.77;;;1.80;99.90;;;;;;5082213;28;20203;-73
2021/01/06 03:30:57;;;;;;;25.90;18.57;;;1.80;99.90;;;;;;5091772;28;20586;-73
2021/01/06 03:33:33;;;;;;;26.70;18.60;;;1.80;99.90;;;;;;5090399;28;20249;-73
2021/01/06 03:36:12;;;;;;;25.27;18.50;;;1.90;99.90;;;;;;5088243;28;20197;-73
2021/01/06 03:38:48;;;;;;;22.63;18.20;;;1.80;99.90;;;;;;5092106;28;20215;-73
2021/01/06 03:41:16;;;;;;;24.43;17.83;;;1.80;99.90;;;;;;5092561;28;20244;-73
2021/01/06 03:43:46;;;;;;;20.03;16.57;;;1.80;99.90;;;;;;5097061;28;20195;-74
2021/01/06 03:46:47;;;;;;;19.13;15.90;;;1.80;99.90;;;;;;5092823;28;20203;-73
2021/01/06 03:49:44;;;;;;;21.63;16.77;;;1.80;99.90;;;;;;5090914;28;20241;-73
2021/01/06 03:52:35;;;;;;;17.83;15.20;;;1.80;99.90;;;;;;5085233;28;20202;-73
2021/01/06 03:55:16;;;;;;;18.30;14.40;;;1.80;99.90;;;;;;5084373;28;20200;-73
2021/01/06 03:57:43;;;;;;;19.80;14.57;;;1.80;99.90;;;;;;5088041;28;20189;-73
2021/01/06 04:00:23;;;;;;;17.70;15.47;;;1.80;99.90;;;;;;5082199;28;20184;-74
2021/01/06 04:02:52;;;;;;;19.93;15.13;;;1.80;99.90;;;;;;5089524;28;20185;-72
2021/01/06 04:05:19;;;;;;;17.53;14.30;;;1.80;99.90;;;;;;5080268;28;20202;-73
2021/01/06 04:07:53;;;;;;;17.47;14.70;;;1.80;99.90;;;;;;5090496;28;20800;-72
2021/01/06 04:10:24;;;;;;;17.13;14.20;;;1.80;99.90;;;;;;5089566;28;20178;-74
2021/01/06 04:12:50;;;;;;;17.97;15.00;;;1.80;99.90;;;;;;5085108;28;20257;-73
2021/01/06 04:15:16;;;;;;;15.90;13.97;;;1.80;99.90;;;;;;5094264;28;20235;-73
2021/01/06 04:17:45;;;;;;;18.33;14.40;;;1.80;99.90;;;;;;5089844;28;20182;-72
2021/01/06 04:20:31;;;;;;;18.17;14.97;;;1.80;99.90;;;;;;5084661;28;20226;-73
2021/01/06 04:23:00;;;;;;;17.67;14.90;;;1.80;99.90;;;;;;5077555;28;20184;-73
2021/01/06 04:25:29;;;;;;;17.07;14.37;;;1.80;99.90;;;;;;5088954;28;20201;-73
2021/01/06 04:27:56;;;;;;;16.37;14.07;;;1.80;99.90;;;;;;5083194;28;20313;-73
2021/01/06 04:30:30;;;;;;;17.47;14.20;;;1.80;99.90;;;;;;5085839;28;20193;-73
2021/01/06 04:32:57;;;;;;;16.97;14.70;;;1.80;99.90;;;;;;5086878;28;20187;-73
2021/01/06 04:35:24;;;;;;;16.53;14.20;;;1.80;99.90;;;;;;5087713;28;20207;-73
2021/01/06 04:37:50;;;;;;;16.30;14.30;;;1.80;99.90;;;;;;5087209;28;20186;-73
2021/01/06 04:40:19;;;;;;;16.80;15.03;;;1.80;99.90;;;;;;5089605;28;20192;-75
2021/01/06 04:42:45;;;;;;;16.53;14.10;;;1.80;99.90;;;;;;5077840;28;20186;-72
2021/01/06 04:45:15;;;;;;;17.33;14.33;;;1.70;99.90;;;;;;5086769;28;20221;-72
2021/01/06 04:48:12;;;;;;;18.97;14.47;;;1.70;99.90;;;;;;5092874;28;20229;-74
2021/01/06 04:50:51;;;;;;;20.20;18.23;;;1.80;99.90;;;;;;5087467;28;20783;-72
2021/01/06 04:53:58;;;;;;;18.00;14.07;;;1.70;99.90;;;;;;5086104;28;20241;-74
2021/01/06 04:56:35;;;;;;;15.90;14.20;;;1.70;99.90;;;;;;5076289;28;20676;-74
2021/01/06 04:59:05;;;;;;;20.07;14.63;;;1.70;99.90;;;;;;5082463;28;20175;-74
2021/01/06 05:01:55;;;;;;;17.23;13.70;;;1.70;99.90;;;;;;5082590;28;20564;-73
2021/01/06 05:05:05;;;;;;;18.33;14.67;;;1.70;99.90;;;;;;5086909;28;20204;-73
2021/01/06 05:08:04;;;;;;;19.77;15.17;;;1.70;99.90;;;;;;5073768;28;20211;-73
2021/01/06 05:10:38;;;;;;;18.70;15.10;;;1.70;99.90;;;;;;5072829;28;20204;-73
2021/01/06 05:13:24;;;;;;;20.57;14.97;;;1.70;99.90;;;;;;5043134;28;20194;-73
2021/01/06 05:16:01;;;;;;;19.37;15.47;;;1.70;99.90;;;;;;5068523;28;20237;-72
2021/01/06 05:18:27;;;;;;;16.60;14.33;;;1.70;99.90;;;;;;5065065;28;20193;-73
2021/01/06 05:20:56;;;;;;;19.37;14.90;;;1.70;99.90;;;;;;5064873;28;20224;-73
2021/01/06 05:23:27;;;;;;;17.23;14.80;;;1.70;99.90;;;;;;5071792;28;20288;-73
2021/01/06 05:25:55;;;;;;;16.77;14.70;;;1.70;99.90;;;;;;5065686;28;20211;-73
2021/01/06 05:28:22;;;;;;;19.23;15.23;;;1.70;99.90;;;;;;5072579;28;20213;-73
2021/01/06 05:30:53;;;;;;;20.73;17.17;;;1.70;99.90;;;;;;5066557;28;20223;-72
2021/01/06 05:33:31;;;;;;;18.90;15.87;;;1.70;99.90;;;;;;5056285;28;20315;-73
2021/01/06 05:35:57;;;;;;;19.43;15.60;;;1.70;99.90;;;;;;5070421;28;20220;-74
2021/01/06 05:38:23;;;;;;;20.57;15.80;;;1.70;99.90;;;;;;5063664;28;20189;-73
2021/01/06 05:40:49;;;;;;;21.03;15.70;;;1.70;99.90;;;;;;5073143;28;20242;-73
2021/01/06 05:43:17;;;;;;;19.13;15.40;;;1.70;99.90;;;;;;5082630;28;20227;-73
2021/01/06 05:45:54;;;;;;;19.43;15.73;;;1.70;99.90;;;;;;5097046;28;20221;-73
2021/01/06 05:48:37;;;;;;;18.60;14.90;;;1.70;99.90;;;;;;5092476;28;20208;-73
2021/01/06 05:51:05;;;;;;;17.13;14.37;;;1.70;99.90;;;;;;5091240;28;20204;-73
2021/01/06 05:53:41;;;;;;;20.47;15.60;;;1.70;99.90;;;;;;5092035;28;20183;-73
2021/01/06 05:56:31;;;;;;;21.20;15.97;;;1.70;99.90;;;;;;5084796;28;20322;-73
2021/01/06 05:59:11;;;;;;;20.07;15.97;;;1.70;99.90;;;;;;5094682;28;20208;-73
2021/01/06 06:01:58;;;;;;;19.60;16.00;;;1.70;99.90;;;;;;5103731;28;20178;-74
2021/01/06 06:04:43;;;;;;;18.97;14.77;;;1.70;99.90;;;;;;5097180;28;20183;-73
2021/01/06 06:07:49;;;;;;;22.13;15.30;;;1.70;99.90;;;;;;5112971;28;20288;-72
2021/01/06 06:10:37;;;;;;;21.53;15.90;;;1.70;99.90;;;;;;5084582;28;20198;-72
2021/01/06 06:13:09;;;;;;;26.77;15.67;;;1.70;99.90;;;;;;5064998;28;20196;-73
2021/01/06 06:15:40;;;;;;;25.60;16.93;;;1.70;99.90;;;;;;5071741;28;20207;-72
2021/01/06 06:18:27;;;;;;;24.20;17.50;;;1.70;99.90;;;;;;5067666;28;20220;-72
2021/01/06 06:20:58;;;;;;;24.50;17.33;;;1.70;99.90;;;;;;5046592;28;20225;-73
2021/01/06 06:23:53;;;;;;;23.10;16.43;;;1.70;99.90;;;;;;5065288;28;20239;-72
2021/01/06 06:27:17;;;;;;;27.47;16.53;;;1.70;99.90;;;;;;5055945;28;20287;-72
2021/01/06 06:29:52;;;;;;;22.43;17.17;;;1.70;99.90;;;;;;4980435;28;20273;-74
2021/01/06 06:32:18;;;;;;;25.93;18.70;;;1.70;99.90;;;;;;5061345;28;20189;-73
2021/01/06 06:34:44;;;;;;;27.07;18.63;;;1.70;99.90;;;;;;5046787;28;20270;-73
2021/01/06 06:37:19;;;;;;;26.93;17.60;;;1.70;99.90;;;;;;5057815;28;20272;-73
2021/01/06 06:40:07;;;;;;;25.97;18.07;;;1.70;99.90;;;;;;5069750;28;20207;-73
2021/01/06 06:42:47;;;;;;;26.07;17.43;;;1.70;99.90;;;;;;5065084;28;20244;-73
2021/01/06 06:45:31;;;;;;;27.20;18.23;;;1.70;99.90;;;;;;5064598;28;20234;-73
2021/01/06 06:48:30;;;;;;;25.80;16.93;;;1.70;99.90;;;;;;5077891;28;20225;-74
2021/01/06 06:51:09;;;;;;;24.27;17.97;;;1.70;99.90;;;;;;5092415;28;20177;-72
2021/01/06 06:54:15;;;;;;;27.90;18.20;;;1.70;99.90;;;;;;5089499;28;20192;-72
2021/01/06 06:57:08;;;;;;;23.07;17.13;;;1.70;99.90;;;;;;5068389;28;20202;-73
2021/01/06 06:59:43;;;;;;;26.57;17.40;;;1.70;99.90;;;;;;5067930;28;20191;-73
2021/01/06 07:02:09;;;;;;;25.40;17.43;;;1.70;99.90;;;;;;5067249;28;20794;-73
2021/01/06 07:04:42;;;;;;;28.67;18.27;;;1.70;99.90;;;;;;5053262;28;20198;-73
2021/01/06 07:07:37;;;;;;;25.03;16.97;;;1.70;99.90;;;;;;5070174;28;20392;-72
2021/01/06 07:10:15;;;;;;;23.30;16.93;;;1.70;99.90;;;;;;5056099;28;20189;-73
2021/01/06 07:12:41;;;;;;;21.83;16.57;;;1.70;99.90;;;;;;5065733;28;20186;-72
2021/01/06 07:15:20;;;;;;;23.30;17.33;;;1.70;99.90;;;;;;5066235;28;20202;-73
2021/01/06 07:17:45;;;;;;;25.23;17.80;;;1.70;99.90;;;;;;5060603;28;20196;-72
2021/01/06 07:20:16;;;;;;;22.93;17.07;;;1.60;99.90;;;;;;5065212;28;20265;-73
2021/01/06 07:22:44;;;;;;;23.80;17.10;;;1.60;99.90;;;;;;5067293;28;20187;-72
2021/01/06 07:25:23;;;;;;;24.40;16.40;;;1.60;99.90;;;;;;5065292;28;20297;-73
2021/01/06 07:27:53;;;;;;;19.70;15.80;;;1.60;99.90;;;;;;5070569;28;20211;-73
2021/01/06 07:30:40;;;;;;;22.27;16.30;;;1.60;99.90;;;;;;5068548;28;20187;-73
2021/01/06 07:33:38;;;;;;;21.17;16.10;;;1.70;99.90;;;;;;5069165;28;20202;-72
2021/01/06 07:36:18;;;;;;;20.27;15.33;;;1.60;99.90;;;;;;5089990;28;20202;-73
2021/01/06 07:38:46;;;;;;;21.27;15.87;;;1.60;99.90;;;;;;5087280;28;20184;-72
2021/01/06 07:41:12;;;;;;;20.53;15.43;;;1.70;99.90;;;;;;5088964;28;20192;-73
2021/01/06 07:43:44;;;;;;;22.10;15.57;;;1.70;99.90;;;;;;5086650;28;21381;-72
2021/01/06 07:46:21;;;;;;;22.23;15.47;;;1.70;99.90;;;;;;5092632;28;20220;-73
2021/01/06 07:49:01;;;;;;;19.23;15.10;;;1.70;99.90;;;;;;5094377;28;20210;-73
2021/01/06 07:51:52;;;;;;;21.20;15.77;;;1.70;99.90;;;;;;5097819;28;20238;-74
2021/01/06 07:54:36;;;;;;;22.13;15.73;;;1.70;99.90;;;;;;5095172;28;20175;-72
2021/01/06 07:57:19;;;;;;;20.83;14.77;;;1.70;99.90;;;;;;5087581;28;20211;-73
2021/01/06 07:59:57;;;;;;;26.27;16.70;;;1.70;99.90;;;;;;5084448;28;20199;-72
2021/01/06 08:02:33;;;;;;;21.77;15.50;;;1.70;99.90;;;;;;5085690;28;20172;-72
2021/01/06 08:05:11;;;;;;;23.03;15.87;;;1.70;99.90;;;;;;5088987;28;20202;-72
2021/01/06 08:07:37;;;;;;;22.57;15.63;;;1.80;99.90;;;;;;5089057;28;20836;-72
2021/01/06 08:10:24;;;;;;;23.03;16.67;;;1.80;99.90;;;;;;5094205;28;20174;-72
2021/01/06 08:12:50;;;;;;;23.00;16.40;;;1.80;99.90;;;;;;5093532;28;20191;-73
2021/01/06 08:15:19;;;;;;;22.80;16.53;;;1.80;99.90;;;;;;5083307;28;20201;-73
2021/01/06 08:17:54;;;;;;;23.17;15.70;;;1.80;99.90;;;;;;5091017;28;20186;-72
2021/01/06 08:20:27;;;;;;;23.43;15.70;;;1.80;99.90;;;;;;5085850;28;20216;-71
2021/01/06 08:23:16;;;;;;;24.00;16.73;;;1.90;99.90;;;;;;5086009;28;20194;-72
2021/01/06 08:26:12;;;;;;;24.87;17.20;;;1.90;99.90;;;;;;5085461;28;20204;-71
2021/01/06 08:28:38;;;;;;;21.43;16.67;;;1.90;99.90;;;;;;5090015;28;20681;-70
2021/01/06 08:31:20;;;;;;;23.53;17.33;;;1.90;99.90;;;;;;5083494;28;20252;-70
2021/01/06 08:33:52;;;;;;;23.33;16.67;;;1.90;99.90;;;;;;5086249;28;20267;-72
2021/01/06 08:36:45;;;;;;;25.67;18.17;;;2.00;99.90;;;;;;5093019;28;20227;-72
2021/01/06 08:39:22;;;;;;;21.93;16.97;;;2.00;99.90;;;;;;5086643;28;20189;-72
2021/01/06 08:41:48;;;;;;;22.07;17.17;;;2.00;99.90;;;;;;5086302;28;20262;-71
2021/01/06 08:44:45;;;;;;;23.70;16.93;;;2.00;99.90;;;;;;5080319;28;20217;-73
2021/01/06 08:47:28;;;;;;;24.37;17.47;;;2.00;99.90;;;;;;5086391;28;20210;-72
2021/01/06 08:49:54;;;;;;;25.67;15.83;;;2.00;99.90;;;;;;5081997;28;20181;-72
2021/01/06 08:52:25;;;;;;;22.90;16.40;;;2.00;99.90;;;;;;5087887;28;20423;-72
2021/01/06 08:55:01;;;;;;;20.50;16.70;;;2.10;99.90;;;;;;5083568;28;20192;-72
2021/01/06 08:57:36;;;;;;;20.63;15.87;;;2.10;99.90;;;;;;5089722;28;20200;-72
2021/01/06 09:00:41;;;;;;;20.57;16.00;;;2.10;99.90;;;;;;5083339;28;20195;-73
2021/01/06 09:03:07;;;;;;;20.37;15.30;;;2.10;99.90;;;;;;5083470;28;20254;-73
2021/01/06 09:06:06;;;;;;;20.97;15.77;;;2.10;99.90;;;;;;5090875;28;20206;-73
2021/01/06 09:09:03;;;;;;;19.27;14.27;;;2.20;99.90;;;;;;5057500;28;20248;-74
2021/01/06 09:11:34;;;;;;;19.97;14.27;;;2.20;99.90;;;;;;5070489;28;20195;-72
2021/01/06 09:14:10;;;;;;;18.13;13.97;;;2.20;99.90;;;;;;5071450;28;20200;-73
2021/01/06 09:16:49;;;;;;;21.63;14.80;;;2.20;99.90;;;;;;5069953;28;20211;-72
2021/01/06 09:19:40;;;;;;;15.87;12.80;;;2.20;99.90;;;;;;5069891;28;20205;-72
2021/01/06 09:22:08;;;;;;;17.20;14.40;;;2.30;99.90;;;;;;5050191;28;20221;-72
2021/01/06 09:24:36;;;;;;;15.37;13.47;;;2.30;99.90;;;;;;5049494;28;20369;-72
2021/01/06 09:27:22;;;;;;;17.67;14.20;;;2.30;99.90;;;;;;5053552;28;20657;-71
2021/01/06 09:29:49;;;;;;;15.93;14.23;;;2.30;99.90;;;;;;5072410;28;20319;-71
2021/01/06 09:32:18;;;;;;;15.23;13.33;;;2.40;99.90;;;;;;5070247;28;20192;-76
2021/01/06 09:34:48;;;;;;;13.93;12.53;;;2.40;99.90;;;;;;5067296;28;20295;-73
2021/01/06 09:37:27;;;;;;;14.33;11.40;;;2.40;99.90;;;;;;5073673;28;20221;-74
2021/01/06 09:39:56;;;;;;;12.73;11.43;;;2.30;99.90;;;;;;5071886;28;20286;-72
2021/01/06 09:42:22;;;;;;;14.60;12.93;;;2.40;99.90;;;;;;5072525;28;20204;-72
2021/01/06 09:44:49;;;;;;;15.63;13.00;;;2.40;99.90;;;;;;5082169;28;20247;-72
2021/01/06 09:47:33;;;;;;;14.07;12.67;;;2.40;99.90;;;;;;5083882;28;20180;-72
2021/01/06 09:50:03;;;;;;;12.40;11.10;;;2.40;99.90;;;;;;5084009;28;20191;-73
2021/01/06 09:52:31;;;;;;;13.17;11.87;;;2.40;99.90;;;;;;5076444;28;20613;-73
2021/01/06 09:54:58;;;;;;;13.33;11.93;;;2.40;99.90;;;;;;5078815;28;20207;-72
2021/01/06 09:57:26;;;;;;;12.63;11.33;;;2.50;99.90;;;;;;5075506;28;20191;-74
2021/01/06 09:59:56;;;;;;;12.97;11.60;;;2.40;99.90;;;;;;5075227;28;20199;-72
2021/01/06 10:02:29;;;;;;;12.30;10.83;;;2.40;99.90;;;;;;5074896;28;20197;-71
2021/01/06 10:05:04;;;;;;;13.90;12.40;;;2.50;99.90;;;;;;5075433;28;20706;-72
2021/01/06 10:07:56;;;;;;;18.40;14.20;;;2.50;99.90;;;;;;5076155;28;20218;-74
2021/01/06 10:10:30;;;;;;;19.63;15.73;;;2.50;99.90;;;;;;5077718;28;20594;-72
2021/01/06 10:13:34;;;;;;;17.40;13.60;;;2.50;99.90;;;;;;5081699;28;20189;-72
2021/01/06 10:16:27;;;;;;;13.90;12.20;;;2.60;99.90;;;;;;5075631;28;20734;-72
2021/01/06 10:19:08;;;;;;;16.83;11.87;;;2.60;99.90;;;;;;5079797;28;20189;-73
2021/01/06 10:22:16;;;;;;;14.13;12.70;;;2.60;99.90;;;;;;5079723;28;20200;-73
2021/01/06 10:24:51;;;;;;;12.67;10.90;;;2.70;99.90;;;;;;5082656;28;20232;-74
2021/01/06 10:27:33;;;;;;;13.17;11.73;;;2.70;99.90;;;;;;5075752;28;20185;-73
2021/01/06 10:30:10;;;;;;;12.43;11.13;;;2.80;99.90;;;;;;5084448;28;20207;-71
2021/01/06 10:32:46;;;;;;;13.27;11.87;;;2.80;99.90;;;;;;5086423;28;20228;-72
2021/01/06 10:35:37;;;;;;;12.00;10.83;;;2.80;99.90;;;;;;5086544;28;20195;-71
2021/01/06 10:38:30;;;;;;;12.50;11.20;;;2.80;99.90;;;;;;5083632;28;20187;-73
2021/01/06 10:41:22;;;;;;;12.10;10.90;;;2.80;99.90;;;;;;5075403;28;20208;-72
2021/01/06 10:43:49;;;;;;;12.37;10.17;;;2.80;99.90;;;;;;5085955;28;20236;-73
2021/01/06 10:46:33;;;;;;;10.67;9.57;;;2.90;99.90;;;;;;5086855;28;20681;-72
2021/01/06 10:48:59;;;;;;;13.60;11.30;;;2.90;99.90;;;;;;5086551;28;20594;-75
2021/01/06 10:51:50;;;;;;;12.10;10.60;;;2.90;99.90;;;;;;5086151;28;20176;-72
2021/01/06 10:54:30;;;;;;;12.03;10.83;;;3.00;99.90;;;;;;5095861;28;20175;-74
2021/01/06 10:56:59;;;;;;;12.57;10.47;;;2.90;99.90;;;;;;5092764;28;20202;-75
2021/01/06 10:59:24;;;;;;;13.07;11.30;;;3.00;99.90;;;;;;5091365;28;20179;-73
2021/01/06 11:02:26;;;;;;;12.10;11.00;;;3.00;99.90;;;;;;5087475;28;20194;-72
2021/01/06 11:04:57;;;;;;;11.23;10.13;;;3.00;99.90;;;;;;5057252;28;20214;-74
2021/01/06 11:07:30;;;;;;;11.23;10.13;;;2.90;99.90;;;;;;5066633;28;20275;-73
2021/01/06 11:10:24;;;;;;;11.63;10.43;;;3.00;99.90;;;;;;5067687;28;20192;-74
2021/01/06 11:13:09;;;;;;;12.03;10.87;;;2.90;99.90;;;;;;5030086;28;20278;-74
2021/01/06 11:15:53;;;;;;;12.03;10.83;;;2.90;99.90;;;;;;5064427;28;20250;-73
2021/01/06 11:18:22;;;;;;;13.07;11.67;;;2.90;99.90;;;;;;5062010;28;20303;-73
2021/01/06 11:21:09;;;;;;;12.60;11.40;;;2.90;99.90;;;;;;5062152;28;20240;-77
2021/01/06 11:23:51;;;;;;;11.20;10.13;;;2.90;99.90;;;;;;5058958;28;20195;-74
2021/01/06 11:26:24;;;;;;;11.87;10.60;;;2.90;99.90;;;;;;5064332;28;20280;-75
2021/01/06 11:29:01;;;;;;;10.57;9.60;;;2.90;99.90;;;;;;5054632;28;20699;-77
2021/01/06 11:31:32;;;;;;;11.03;10.03;;;2.90;99.90;;;;;;5055757;28;20189;-73
2021/01/06 11:34:19;;;;;;;12.57;11.37;;;3.00;99.90;;;;;;5055519;28;20672;-74
2021/01/06 11:36:51;;;;;;;12.90;11.60;;;2.90;99.90;;;;;;5043711;28;20205;-72
2021/01/06 11:39:35;;;;;;;12.07;10.97;;;2.90;99.90;;;;;;5057466;28;20955;-72
2021/01/06 11:42:11;;;;;;;11.30;10.20;;;3.00;99.90;;;;;;5077564;28;20656;-73
2021/01/06 11:45:02;;;;;;;11.17;10.07;;;3.00;99.90;;;;;;5077323;28;20191;-72
2021/01/06 11:47:34;;;;;;;10.70;9.60;;;3.00;99.90;;;;;;5076852;28;20215;-76
2021/01/06 11:50:44;;;;;;;10.83;9.80;;;3.10;99.90;;;;;;5084610;28;20196;-73
2021/01/06 11:53:24;;;;;;;12.90;11.57;;;3.10;99.90;;;;;;5073244;28;20271;-75
2021/01/06 11:56:14;;;;;;;10.87;9.67;;;3.10;99.90;;;;;;5077049;28;21036;-72
2021/01/06 11:59:06;;;;;;;9.80;8.87;;;3.20;99.90;;;;;;5074517;28;20194;-75
2021/01/06 12:01:59;;;;;;;10.53;9.43;;;3.20;99.90;;;;;;5078077;28;20181;-74
2021/01/06 12:05:05;;;;;;;10.67;9.60;;;3.20;99.90;;;;;;5075776;28;20218;-73
2021/01/06 12:07:51;;;;;;;11.63;10.17;;;3.20;99.90;;;;;;5090178;28;20689;-73
2021/01/06 12:10:29;;;;;;;11.27;10.00;;;3.20;99.90;;;;;;5078916;28;20829;-74
2021/01/06 12:13:13;;;;;;;11.63;10.53;;;3.20;99.90;;;;;;5077952;28;20193;-75
2021/01/06 12:16:12;;;;;;;12.80;11.20;;;3.30;99.90;;;;;;5077230;28;20253;-74
2021/01/06 12:19:00;;;;;;;11.83;10.73;;;3.20;99.90;;;;;;5077749;28;20201;-75
2021/01/06 12:21:34;;;;;;;11.73;10.63;;;3.30;99.90;;;;;;5075961;28;20207;-75
2021/01/06 12:24:15;;;;;;;13.20;11.50;;;3.30;99.90;;;;;;5080642;28;20485;-75
2021/01/06 12:26:49;;;;;;;11.97;10.77;;;3.20;99.90;;;;;;5074945;28;20673;-73
2021/01/06 12:29:18;;;;;;;12.23;11.10;;;3.20;99.90;;;;;;5079967;28;20624;-75
2021/01/06 12:31:51;;;;;;;12.07;10.97;;;3.20;99.90;;;;;;5084037;28;20188;-73
2021/01/06 12:34:26;;;;;;;13.10;11.47;;;3.20;99.90;;;;;;5089921;28;20193;-75
2021/01/06 12:37:11;;;;;;;12.53;11.23;;;3.20;99.90;;;;;;5079590;28;20269;-75
2021/01/06 12:39:41;;;;;;;15.80;12.40;;;3.30;99.90;;;;;;5084412;28;20182;-74
2021/01/06 12:42:39;;;;;;;17.90;13.60;;;3.30;99.90;;;;;;5077983;28;20187;-74
2021/01/06 12:45:14;;;;;;;14.47;12.47;;;3.30;99.90;;;;;;5085733;28;20203;-75
2021/01/06 12:47:53;;;;;;;13.87;12.40;;;3.30;99.90;;;;;;5092578;28;20243;-77
2021/01/06 12:50:34;;;;;;;23.73;16.50;;;3.30;99.90;;;;;;5092367;28;20179;-75
2021/01/06 12:53:28;;;;;;;19.30;15.43;;;3.30;99.90;;;;;;5087332;28;20196;-74
2021/01/06 12:56:05;;;;;;;23.77;18.60;;;3.20;99.90;;;;;;5086135;28;20259;-75
2021/01/06 12:58:36;;;;;;;31.67;22.50;;;3.20;99.90;;;;;;5084799;28;20212;-75
2021/01/06 13:01:33;;;;;;;20.07;17.37;;;3.20;99.90;;;;;;5087667;28;20181;-75
2021/01/06 13:04:08;;;;;;;17.43;15.07;;;3.20;99.90;;;;;;5083664;28;20202;-75
2021/01/06 13:06:55;;;;;;;15.20;13.40;;;3.30;99.90;;;;;;5084807;28;20202;-75
2021/01/06 13:09:33;;;;;;;12.80;11.50;;;3.30;99.90;;;;;;5079802;28;20207;-75
2021/01/06 13:12:01;;;;;;;13.47;12.17;;;3.40;99.90;;;;;;5090597;28;20900;-76
2021/01/06 13:15:11;;;;;;;13.53;12.27;;;3.40;99.90;;;;;;5086465;28;20666;-74
2021/01/06 13:17:39;;;;;;;13.53;12.20;;;3.40;99.90;;;;;;5083641;28;20221;-74
2021/01/06 13:20:05;;;;;;;12.97;11.60;;;3.40;99.90;;;;;;5082832;28;20224;-75
2021/01/06 13:22:35;;;;;;;13.70;12.40;;;3.50;99.90;;;;;;5086741;28;20210;-75
2021/01/06 13:25:09;;;;;;;12.20;10.93;;;3.50;99.90;;;;;;5080195;28;20213;-74
2021/01/06 13:27:50;;;;;;;12.93;11.73;;;3.50;99.90;;;;;;5084189;28;20203;-74